Rasht, Iran
Current Conditions -  °F | °C
As of 3:00 PM on Monday 26 Jan 2015 (Local Time) from OIGG Reporting Station
Haze Haze  
Wind Chill: 50°   Ceiling: 8000
Heat Index: 50°   Visibility: 2.5mi
Dew Point: 45°   Wind: 5mph
Humidity: 82%   Direction: 280°W
Pressure: 30.24"   Gusts: NA
Location:  37.28°N, 49.58°E
Report Text: OIGG 261200Z 28004KT 4000 BR FEW015TCU SCT020OVC080 10/07 Q1024
Loading
Personal Weather Stations






























Interactive Weather Map New forecast layout! Learn more

10-Day Weather Forecast

Advertisements
Track Severe Weather on mobile